createdAt,value
2023-04-16T00:02:11.716Z,5.56
2023-04-16T00:04:57.558Z,5.90
2023-04-16T00:07:43.555Z,6.02
2023-04-16T00:10:29.483Z,6.02
2023-04-16T00:13:15.286Z,6.41
2023-04-16T00:16:01.186Z,6.14
2023-04-16T00:18:47.019Z,6.37
2023-04-16T00:21:32.950Z,6.74
2023-04-16T00:24:18.927Z,6.67
2023-04-16T00:27:04.763Z,6.82
2023-04-16T00:29:50.634Z,7.04
2023-04-16T00:32:36.527Z,7.52
2023-04-16T00:35:22.422Z,7.74
2023-04-16T00:38:08.331Z,7.64
2023-04-16T00:40:54.328Z,7.86
2023-04-16T00:43:40.048Z,7.57
2023-04-16T00:46:26.072Z,6.74
2023-04-16T00:49:12.029Z,6.11
2023-04-16T00:51:57.989Z,6.44
2023-04-16T00:54:44.008Z,6.54
2023-04-16T00:57:29.827Z,7.05
2023-04-16T01:00:15.637Z,7.58
2023-04-16T01:03:01.521Z,7.56
2023-04-16T01:05:47.682Z,8.03
2023-04-16T01:08:33.677Z,8.22
2023-04-16T01:11:19.453Z,8.41
2023-04-16T01:14:07.393Z,8.37
2023-04-16T01:16:53.172Z,8.32
2023-04-16T01:19:38.967Z,8.66
2023-04-16T01:22:24.881Z,8.98
2023-04-16T01:25:10.810Z,9.22
2023-04-16T01:27:56.568Z,8.63
2023-04-16T01:30:42.582Z,9.04
2023-04-16T01:33:28.544Z,9.38
2023-04-16T01:36:14.564Z,9.71
2023-04-16T01:39:00.548Z,9.82
2023-04-16T01:41:46.290Z,9.92
2023-04-16T01:44:32.202Z,10.16
2023-04-16T01:47:18.127Z,10.45
2023-04-16T01:50:04.100Z,10.50
2023-04-16T01:52:50.072Z,10.19
2023-04-16T01:55:35.873Z,10.60
2023-04-16T01:58:21.814Z,10.85
2023-04-16T02:01:07.687Z,10.78
2023-04-16T02:03:53.852Z,10.77
2023-04-16T02:06:40.065Z,10.83
2023-04-16T02:09:26.038Z,10.74
2023-04-16T02:12:11.940Z,10.46
2023-04-16T02:14:57.829Z,10.30
2023-04-16T02:17:43.573Z,10.46
2023-04-16T02:20:29.472Z,10.59
2023-04-16T02:23:15.301Z,10.68
2023-04-16T02:26:01.308Z,10.80
2023-04-16T02:28:47.276Z,10.72
2023-04-16T02:31:33.142Z,10.97
2023-04-16T02:34:18.961Z,10.89
2023-04-16T02:37:04.846Z,10.59
2023-04-16T02:39:50.722Z,10.79
2023-04-16T02:42:36.792Z,10.59
2023-04-16T02:45:22.576Z,10.45
2023-04-16T02:48:08.583Z,10.61
2023-04-16T02:50:54.621Z,10.33
2023-04-16T02:53:40.428Z,10.51
2023-04-16T02:56:26.377Z,10.81
2023-04-16T02:59:12.365Z,11.03
2023-04-16T03:01:58.339Z,10.89
2023-04-16T03:04:44.762Z,10.74
2023-04-16T03:07:30.639Z,10.99
2023-04-16T03:10:16.547Z,11.15
2023-04-16T03:13:02.589Z,11.30
2023-04-16T03:15:48.337Z,11.42
2023-04-16T03:18:36.290Z,11.47
2023-04-16T03:21:22.236Z,11.44
2023-04-16T03:24:08.372Z,11.37
2023-04-16T03:26:54.229Z,11.19
2023-04-16T03:29:40.249Z,11.10
2023-04-16T03:32:26.095Z,10.66
2023-04-16T03:35:11.940Z,11.01
2023-04-16T03:37:57.769Z,11.14
2023-04-16T03:40:43.664Z,11.18
2023-04-16T03:43:29.747Z,11.34
2023-04-16T03:46:15.664Z,11.36
2023-04-16T03:49:01.639Z,11.53
2023-04-16T03:51:47.557Z,11.52
2023-04-16T03:54:33.464Z,11.20
2023-04-16T03:57:19.509Z,11.50
2023-04-16T04:00:05.375Z,11.49
2023-04-16T04:02:51.313Z,11.38
2023-04-16T04:05:37.552Z,11.45
2023-04-16T04:08:23.383Z,11.54
2023-04-16T04:11:09.161Z,11.50
2023-04-16T04:13:54.924Z,11.39
2023-04-16T04:16:41.049Z,11.68
2023-04-16T04:19:27.269Z,11.65
2023-04-16T04:22:13.151Z,11.73
2023-04-16T04:24:58.953Z,11.58
2023-04-16T04:27:44.768Z,11.60
2023-04-16T04:30:30.533Z,11.62
2023-04-16T04:33:16.489Z,11.73
2023-04-16T04:36:02.421Z,11.77
2023-04-16T04:38:48.364Z,11.85
2023-04-16T04:41:34.369Z,11.68
2023-04-16T04:44:20.105Z,11.61
2023-04-16T04:47:05.912Z,11.66
2023-04-16T04:49:51.935Z,11.62
2023-04-16T04:52:37.777Z,11.62
2023-04-16T04:55:23.645Z,11.63
2023-04-16T04:58:09.519Z,11.70
2023-04-16T05:00:55.430Z,11.70
2023-04-16T05:03:41.512Z,11.77
2023-04-16T05:06:29.480Z,11.73
2023-04-16T05:09:15.416Z,11.80
2023-04-16T05:12:01.409Z,11.61
2023-04-16T05:14:47.228Z,11.62
2023-04-16T05:17:32.975Z,11.43
2023-04-16T05:20:18.824Z,11.50
2023-04-16T05:23:04.627Z,11.47
2023-04-16T05:25:50.516Z,11.67
2023-04-16T05:28:36.352Z,11.62
2023-04-16T05:31:22.264Z,11.73
2023-04-16T05:34:08.330Z,11.79
2023-04-16T05:36:54.174Z,12.00
2023-04-16T05:39:40.131Z,10.70
2023-04-16T05:42:25.997Z,9.70
2023-04-16T05:45:11.872Z,9.65
2023-04-16T05:47:57.816Z,9.93
2023-04-16T05:50:43.653Z,10.10
2023-04-16T05:53:29.599Z,9.86
2023-04-16T05:56:15.475Z,10.09
2023-04-16T05:59:01.657Z,10.48
2023-04-16T06:01:47.895Z,10.63
2023-04-16T06:04:33.872Z,9.64
2023-04-16T06:07:19.778Z,9.53
2023-04-16T06:10:05.662Z,9.32
2023-04-16T06:12:51.523Z,9.89
2023-04-16T06:15:37.442Z,10.22
2023-04-16T06:18:25.384Z,10.68
2023-04-16T06:21:11.065Z,10.42
2023-04-16T06:23:56.967Z,10.71
2023-04-16T06:26:42.843Z,11.07
2023-04-16T06:29:40.577Z,11.20
2023-04-16T06:32:27.890Z,11.42
2023-04-16T06:35:13.708Z,11.59
2023-04-16T06:38:01.636Z,11.77
2023-04-16T06:40:47.540Z,11.98
2023-04-16T06:43:33.324Z,11.99
2023-04-16T06:46:19.275Z,11.99
2023-04-16T06:49:05.089Z,12.09
2023-04-16T06:51:50.860Z,12.24
2023-04-16T06:54:36.756Z,12.26
2023-04-16T06:57:22.583Z,12.21
2023-04-16T07:00:08.485Z,12.42
2023-04-16T07:02:56.999Z,12.53
2023-04-16T07:05:44.073Z,12.61
2023-04-16T07:08:30.074Z,12.16
2023-04-16T07:11:16.069Z,11.04
2023-04-16T07:14:01.859Z,9.91
2023-04-16T07:16:47.761Z,10.54
2023-04-16T07:19:33.492Z,9.60
2023-04-16T07:22:19.462Z,9.05
2023-04-16T07:25:05.326Z,9.47
2023-04-16T07:27:51.252Z,8.85
2023-04-16T07:30:37.158Z,8.40
2023-04-16T07:33:23.096Z,8.58
2023-04-16T07:36:08.945Z,8.29
2023-04-16T07:38:56.951Z,7.82
2023-04-16T07:41:42.811Z,7.47
2023-04-16T07:44:28.659Z,7.77
2023-04-16T07:47:14.623Z,7.64
2023-04-16T07:50:00.405Z,7.42
2023-04-16T07:52:46.432Z,7.92
2023-04-16T07:55:32.310Z,7.49
2023-04-16T07:58:18.108Z,8.18
2023-04-16T08:01:03.983Z,7.74
2023-04-16T08:03:49.877Z,7.66
2023-04-16T08:06:35.929Z,7.75
2023-04-16T08:09:21.895Z,8.78
2023-04-16T08:12:07.715Z,8.04
2023-04-16T08:14:53.597Z,8.01
2023-04-16T08:17:39.567Z,8.39
2023-04-16T08:20:25.678Z,9.17
2023-04-16T08:23:11.647Z,9.38
2023-04-16T08:25:57.444Z,9.58
2023-04-16T08:28:43.402Z,8.76
2023-04-16T08:31:29.450Z,9.10
2023-04-16T08:34:15.405Z,8.78
2023-04-16T08:37:01.393Z,8.58
2023-04-16T08:39:47.218Z,8.52
2023-04-16T08:42:33.046Z,8.62
2023-04-16T08:45:18.817Z,8.03
2023-04-16T08:48:04.693Z,8.37
2023-04-16T08:50:50.682Z,8.33
2023-04-16T08:53:38.329Z,8.23
2023-04-16T08:56:24.332Z,8.89
2023-04-16T08:59:10.504Z,8.32
2023-04-16T09:01:56.654Z,7.91
2023-04-16T09:04:42.496Z,7.78
2023-04-16T09:07:28.544Z,7.77
2023-04-16T09:10:14.421Z,7.41
2023-04-16T09:13:00.195Z,7.56
2023-04-16T09:15:46.054Z,8.29
2023-04-16T09:18:31.925Z,7.99
2023-04-16T09:21:17.827Z,8.04
2023-04-16T09:24:03.689Z,8.53
2023-04-16T09:26:49.703Z,8.71
2023-04-16T09:29:35.673Z,9.50
2023-04-16T09:32:21.660Z,9.51
2023-04-16T09:35:09.553Z,10.04
2023-04-16T09:37:55.501Z,9.56
2023-04-16T09:40:41.276Z,9.51
2023-04-16T09:43:27.183Z,9.62
2023-04-16T09:46:13.029Z,9.22
2023-04-16T09:48:58.819Z,9.95
2023-04-16T09:51:44.882Z,10.24
2023-04-16T09:54:30.758Z,10.40
2023-04-16T09:57:16.583Z,10.69
2023-04-16T10:00:02.408Z,9.22
2023-04-16T10:02:50.511Z,8.59
2023-04-16T10:05:36.727Z,8.66
2023-04-16T10:08:22.653Z,8.16
2023-04-16T10:11:08.594Z,7.88
2023-04-16T10:13:54.464Z,8.01
2023-04-16T10:16:40.429Z,8.23
2023-04-16T10:19:26.192Z,8.47
2023-04-16T10:22:12.165Z,7.74
2023-04-16T10:24:57.989Z,7.72
2023-04-16T10:27:43.839Z,7.89
2023-04-16T10:30:29.783Z,8.22
2023-04-16T10:33:15.599Z,8.86
2023-04-16T10:36:07.280Z,8.64
2023-04-16T10:38:53.779Z,8.74
2023-04-16T10:41:39.749Z,8.89
2023-04-16T10:44:25.494Z,8.58
2023-04-16T10:47:11.541Z,8.97
2023-04-16T10:49:57.500Z,9.69
2023-04-16T10:52:43.481Z,9.64
2023-04-16T10:55:29.358Z,8.65
2023-04-16T10:58:15.326Z,8.98
2023-04-16T11:01:01.175Z,9.67
2023-04-16T11:03:47.239Z,9.59
2023-04-16T11:06:33.406Z,8.79
2023-04-16T11:09:19.305Z,9.58
2023-04-16T11:12:05.158Z,9.65
2023-04-16T11:14:51.072Z,8.77
2023-04-16T11:17:36.986Z,8.15
2023-04-16T11:20:22.947Z,8.76
2023-04-16T11:23:09.080Z,8.89
2023-04-16T11:25:54.961Z,8.11
2023-04-16T11:28:40.757Z,8.51
2023-04-16T11:31:26.682Z,8.59
2023-04-16T11:34:12.547Z,8.98
2023-04-16T11:36:58.371Z,8.68
2023-04-16T11:39:44.359Z,9.30
2023-04-16T11:42:30.169Z,9.10
2023-04-16T11:45:16.109Z,9.14
2023-04-16T11:48:01.974Z,9.70
2023-04-16T11:50:47.934Z,9.18
2023-04-16T11:53:34.040Z,9.39
2023-04-16T11:56:19.904Z,8.65
2023-04-16T11:59:05.805Z,9.40
2023-04-16T12:01:52.410Z,8.67
2023-04-16T12:04:38.703Z,9.35
2023-04-16T12:07:24.674Z,9.30
2023-04-16T12:10:10.617Z,8.40
2023-04-16T12:12:56.417Z,8.33
2023-04-16T12:15:42.377Z,8.52
2023-04-16T12:18:28.179Z,7.90
2023-04-16T12:21:14.127Z,8.18
2023-04-16T12:24:00.001Z,8.47
2023-04-16T12:26:45.920Z,7.92
2023-04-16T12:29:31.892Z,8.18
2023-04-16T12:32:17.678Z,7.91
2023-04-16T12:35:03.676Z,7.80
2023-04-16T12:37:49.619Z,8.44
2023-04-16T12:40:35.524Z,8.51
2023-04-16T12:43:21.508Z,8.21
2023-04-16T12:46:07.395Z,7.96
2023-04-16T12:48:53.244Z,8.28
2023-04-16T12:51:39.161Z,8.33
2023-04-16T12:54:24.916Z,8.98
2023-04-16T12:57:10.869Z,8.28
2023-04-16T12:59:56.941Z,8.43
2023-04-16T13:02:43.040Z,8.21
2023-04-16T13:05:29.344Z,8.45
2023-04-16T13:08:15.335Z,8.69
2023-04-16T13:11:01.181Z,9.18
2023-04-16T13:13:47.148Z,8.35
2023-04-16T13:16:33.020Z,8.09
2023-04-16T13:19:18.881Z,8.01
2023-04-16T13:22:04.958Z,8.42
2023-04-16T13:24:50.835Z,8.01
2023-04-16T13:27:36.791Z,7.73
2023-04-16T13:30:22.734Z,7.77
2023-04-16T13:33:08.696Z,7.58
2023-04-16T13:35:54.815Z,8.12
2023-04-16T13:38:40.611Z,7.71
2023-04-16T13:41:26.477Z,7.97
2023-04-16T13:44:12.504Z,8.11
2023-04-16T13:46:58.560Z,7.87
2023-04-16T13:49:44.515Z,8.07
2023-04-16T13:52:30.269Z,7.86
2023-04-16T13:55:16.106Z,7.30
2023-04-16T13:58:01.981Z,7.87
2023-04-16T14:00:47.876Z,8.43
2023-04-16T14:03:33.797Z,8.18
2023-04-16T14:06:19.712Z,8.33
2023-04-16T14:09:05.463Z,8.23
2023-04-16T14:11:51.313Z,7.98
2023-04-16T14:14:37.292Z,7.70
2023-04-16T14:17:23.196Z,7.62
2023-04-16T14:20:09.177Z,7.29
2023-04-16T14:22:55.057Z,7.42
2023-04-16T14:25:40.991Z,7.33
2023-04-16T14:28:26.861Z,7.25
2023-04-16T14:31:12.844Z,7.46
2023-04-16T14:33:59.802Z,7.31
2023-04-16T14:36:45.706Z,7.44
2023-04-16T14:39:31.730Z,7.47
2023-04-16T14:42:17.673Z,7.66
2023-04-16T14:45:03.515Z,7.55
2023-04-16T14:47:49.450Z,7.48
2023-04-16T14:50:35.436Z,7.63
2023-04-16T14:53:21.371Z,8.12
2023-04-16T14:56:07.354Z,7.87
2023-04-16T14:58:53.204Z,8.39
2023-04-16T15:01:39.091Z,7.56
2023-04-16T15:04:25.105Z,7.65
2023-04-16T15:07:11.417Z,7.39
2023-04-16T15:09:57.316Z,7.26
2023-04-16T15:12:43.362Z,7.30
2023-04-16T15:15:29.223Z,7.16
2023-04-16T15:18:15.176Z,6.98
2023-04-16T15:21:00.995Z,7.02
2023-04-16T15:23:46.809Z,6.46
2023-04-16T15:26:32.668Z,6.76
2023-04-16T15:29:20.552Z,6.89
2023-04-16T15:32:06.606Z,7.02
2023-04-16T15:34:52.554Z,7.21
2023-04-16T15:37:38.420Z,7.13
2023-04-16T15:40:24.252Z,7.10
2023-04-16T15:43:10.208Z,7.19
2023-04-16T15:45:56.079Z,7.13
2023-04-16T15:48:41.921Z,6.94
2023-04-16T15:51:27.708Z,6.83
2023-04-16T15:54:13.570Z,7.07
2023-04-16T15:56:59.386Z,7.09
2023-04-16T15:59:59.347Z,6.72
2023-04-16T16:02:51.312Z,6.61
2023-04-16T16:05:37.523Z,6.48
2023-04-16T16:08:23.368Z,6.55
2023-04-16T16:11:09.169Z,6.28
2023-04-16T16:13:55.087Z,6.41
2023-04-16T16:16:40.979Z,6.15
2023-04-16T16:19:26.809Z,6.23
2023-04-16T16:22:12.618Z,6.17
2023-04-16T16:24:58.496Z,6.32
2023-04-16T16:27:44.374Z,6.54
2023-04-16T16:30:30.165Z,6.78
2023-04-16T16:33:16.067Z,6.32
2023-04-16T16:36:01.992Z,6.44
2023-04-16T16:38:47.839Z,7.21
2023-04-16T16:41:33.806Z,6.39
2023-04-16T16:44:19.501Z,6.03
2023-04-16T16:47:05.355Z,5.80
2023-04-16T16:49:51.372Z,5.71
2023-04-16T16:52:37.102Z,5.82
2023-04-16T16:55:23.023Z,5.66
2023-04-16T16:58:08.772Z,5.89
2023-04-16T17:00:54.694Z,6.09
2023-04-16T17:03:40.731Z,5.97
2023-04-16T17:06:26.687Z,5.47
2023-04-16T17:09:12.674Z,5.90
2023-04-16T17:11:58.944Z,5.94
2023-04-16T17:14:44.845Z,5.97
2023-04-16T17:17:30.737Z,5.81
2023-04-16T17:20:16.663Z,6.38
2023-04-16T17:23:02.515Z,6.21
2023-04-16T17:25:48.373Z,6.24
2023-04-16T17:28:34.129Z,5.82
2023-04-16T17:31:19.828Z,6.28
2023-04-16T17:34:05.802Z,5.90
2023-04-16T17:36:51.716Z,6.25
2023-04-16T17:39:37.668Z,5.77
2023-04-16T17:42:23.465Z,5.76
2023-04-16T17:45:09.408Z,5.59
2023-04-16T17:47:55.406Z,5.46
2023-04-16T17:50:41.236Z,5.20
2023-04-16T17:53:27.125Z,5.34
2023-04-16T17:56:12.905Z,5.06
2023-04-16T17:58:58.829Z,5.15
2023-04-16T18:01:44.953Z,5.51
2023-04-16T18:04:31.269Z,5.56
2023-04-16T18:07:17.465Z,5.35
2023-04-16T18:10:03.475Z,5.47
2023-04-16T18:12:49.339Z,5.40
2023-04-16T18:15:35.249Z,5.43
2023-04-16T18:18:21.119Z,5.59
2023-04-16T18:21:07.129Z,5.27
2023-04-16T18:23:52.951Z,5.43
2023-04-16T18:26:40.824Z,5.10
2023-04-16T18:29:27.257Z,5.01
2023-04-16T18:32:13.255Z,5.30
2023-04-16T18:34:59.169Z,5.45
2023-04-16T18:37:45.090Z,5.16
2023-04-16T18:40:31.017Z,5.44
2023-04-16T18:43:16.845Z,5.33
2023-04-16T18:46:02.783Z,5.08
2023-04-16T18:48:48.624Z,5.12
2023-04-16T18:51:34.482Z,5.32
2023-04-16T18:54:20.445Z,5.10
2023-04-16T18:57:06.305Z,5.02
2023-04-16T18:59:52.157Z,5.13
2023-04-16T19:02:38.044Z,5.15
2023-04-16T19:05:24.344Z,5.12
2023-04-16T19:08:10.404Z,5.19
2023-04-16T19:10:56.230Z,5.03
2023-04-16T19:13:42.109Z,5.12
2023-04-16T19:16:28.123Z,5.02
2023-04-16T19:19:13.990Z,5.03
2023-04-16T19:21:59.917Z,5.00
2023-04-16T19:24:45.719Z,4.90
2023-04-16T19:27:31.630Z,5.10
2023-04-16T19:30:17.715Z,4.88
2023-04-16T19:33:03.516Z,4.92
2023-04-16T19:35:49.379Z,4.96
2023-04-16T19:38:35.297Z,4.94
2023-04-16T19:41:21.133Z,4.93
2023-04-16T19:44:07.070Z,4.99
2023-04-16T19:46:52.857Z,5.07
2023-04-16T19:49:38.884Z,5.08
2023-04-16T19:52:24.854Z,5.15
2023-04-16T19:55:10.646Z,5.13
2023-04-16T19:57:56.434Z,4.94
2023-04-16T20:00:42.341Z,5.01
2023-04-16T20:03:28.716Z,5.24
2023-04-16T20:06:14.747Z,5.29
2023-04-16T20:09:00.660Z,5.38
2023-04-16T20:11:46.590Z,5.32
2023-04-16T20:14:32.549Z,5.34
2023-04-16T20:17:18.376Z,5.46
2023-04-16T20:20:04.270Z,5.42
2023-04-16T20:22:50.112Z,5.40
2023-04-16T20:25:35.944Z,5.20
2023-04-16T20:28:21.767Z,5.35
2023-04-16T20:31:07.563Z,5.26
2023-04-16T20:33:53.497Z,5.11
2023-04-16T20:36:39.251Z,5.17
2023-04-16T20:39:25.062Z,5.28
2023-04-16T20:42:10.930Z,5.03
2023-04-16T20:44:56.839Z,5.06
2023-04-16T20:47:42.800Z,5.16
2023-04-16T20:50:28.756Z,4.90
2023-04-16T20:53:14.580Z,4.79
2023-04-16T20:56:00.495Z,4.83
2023-04-16T20:58:46.302Z,4.73
2023-04-16T21:01:32.309Z,4.97
2023-04-16T21:04:18.321Z,5.24
2023-04-16T21:07:04.405Z,5.27
2023-04-16T21:09:50.629Z,5.09
2023-04-16T21:12:36.559Z,5.11
2023-04-16T21:15:22.446Z,5.08
2023-04-16T21:18:08.343Z,4.72
2023-04-16T21:20:54.127Z,4.63
2023-04-16T21:23:39.863Z,4.51
2023-04-16T21:26:25.705Z,4.66
2023-04-16T21:29:11.716Z,4.57
2023-04-16T21:31:57.774Z,4.50
2023-04-16T21:34:43.552Z,4.61
2023-04-16T21:37:29.405Z,4.49
2023-04-16T21:40:15.287Z,4.62
2023-04-16T21:43:01.196Z,4.43
2023-04-16T21:45:47.021Z,4.49
2023-04-16T21:48:32.991Z,4.39
2023-04-16T21:51:18.796Z,4.47
2023-04-16T21:54:04.700Z,4.52
2023-04-16T21:56:50.484Z,4.57
2023-04-16T21:59:38.287Z,4.54
2023-04-16T22:02:24.273Z,4.58
2023-04-16T22:05:10.448Z,4.61
2023-04-16T22:07:56.304Z,4.61
2023-04-16T22:10:42.208Z,4.62
2023-04-16T22:13:28.014Z,4.68
2023-04-16T22:16:14.035Z,4.90
2023-04-16T22:19:00.126Z,4.77
2023-04-16T22:21:45.982Z,4.81
2023-04-16T22:24:31.914Z,4.71
2023-04-16T22:27:17.610Z,4.71
2023-04-16T22:30:03.478Z,4.79
2023-04-16T22:32:49.478Z,4.80
2023-04-16T22:35:35.289Z,4.83
2023-04-16T22:38:21.138Z,5.03
2023-04-16T22:41:07.064Z,4.64
2023-04-16T22:43:52.783Z,4.73
2023-04-16T22:46:38.681Z,4.60
2023-04-16T22:49:24.916Z,4.63
2023-04-16T22:52:10.869Z,4.64
2023-04-16T22:54:56.785Z,4.70
2023-04-16T22:57:42.466Z,4.33
2023-04-16T23:00:28.351Z,4.31
2023-04-16T23:03:14.329Z,4.33
2023-04-16T23:06:00.360Z,4.31
2023-04-16T23:08:46.326Z,4.31
2023-04-16T23:11:32.184Z,4.49
2023-04-16T23:14:18.002Z,4.28
2023-04-16T23:17:03.882Z,4.43
2023-04-16T23:19:49.723Z,4.57
2023-04-16T23:22:35.654Z,4.47
2023-04-16T23:25:21.390Z,4.36
2023-04-16T23:28:07.383Z,4.62
2023-04-16T23:30:53.436Z,4.41
2023-04-16T23:33:39.184Z,4.35
2023-04-16T23:36:25.092Z,4.49
2023-04-16T23:39:11.115Z,4.44
2023-04-16T23:41:57.284Z,4.43
2023-04-16T23:44:43.236Z,4.42
2023-04-16T23:47:29.064Z,4.45
2023-04-16T23:50:15.072Z,4.47
2023-04-16T23:53:01.183Z,4.57
2023-04-16T23:55:47.004Z,4.57
2023-04-16T23:58:32.749Z,4.46
